createdAt,value
2023-08-25T00:02:27.256Z,99634.00
2023-08-25T00:04:54.940Z,99624.00
2023-08-25T00:07:22.433Z,99621.00
2023-08-25T00:09:49.928Z,99630.00
2023-08-25T00:12:20.625Z,99634.00
2023-08-25T00:14:48.702Z,99636.00
2023-08-25T00:17:16.378Z,99634.00
2023-08-25T00:19:44.400Z,99632.00
2023-08-25T00:22:13.599Z,99632.00
2023-08-25T00:24:40.940Z,99638.00
2023-08-25T00:27:08.662Z,99636.00
2023-08-25T00:29:36.441Z,99637.00
2023-08-25T00:32:04.338Z,99636.00
2023-08-25T00:34:31.920Z,99637.00
2023-08-25T00:37:02.025Z,99636.00
2023-08-25T00:39:31.473Z,99630.00
2023-08-25T00:41:59.176Z,99619.00
2023-08-25T00:44:26.800Z,99617.00
2023-08-25T00:46:56.875Z,99612.00
2023-08-25T00:49:25.976Z,99606.00
2023-08-25T00:51:54.539Z,99599.00
2023-08-25T00:54:26.946Z,99595.00
2023-08-25T00:56:54.667Z,99599.00
2023-08-25T00:59:23.143Z,99599.00
2023-08-25T01:01:50.996Z,99588.00
2023-08-25T01:04:19.777Z,99582.00
2023-08-25T01:06:49.688Z,99579.00
2023-08-25T01:09:18.020Z,99584.00
2023-08-25T01:12:37.414Z,99579.00
2023-08-25T01:15:14.300Z,99583.00
2023-08-25T01:17:50.963Z,99584.00
2023-08-25T01:21:14.469Z,99568.00
2023-08-25T01:24:04.898Z,99576.00
2023-08-25T01:26:33.204Z,99572.00
2023-08-25T01:29:00.792Z,99575.00
2023-08-25T01:31:28.186Z,99573.00
2023-08-25T01:33:56.422Z,99576.00
2023-08-25T01:36:50.784Z,99568.00
2023-08-25T01:39:18.635Z,99565.00
2023-08-25T01:41:57.876Z,99565.00
2023-08-25T01:44:31.691Z,99564.00
2023-08-25T01:47:07.641Z,99573.00
2023-08-25T01:49:37.936Z,99564.00
2023-08-25T01:52:05.950Z,99569.00
2023-08-25T01:54:33.668Z,99561.00
2023-08-25T01:57:01.191Z,99556.00
2023-08-25T01:59:28.587Z,99549.00
2023-08-25T02:01:56.077Z,99545.00
2023-08-25T02:04:24.837Z,99547.00
2023-08-25T02:06:52.420Z,99546.00
2023-08-25T02:09:19.927Z,99538.00
2023-08-25T02:11:47.850Z,99522.00
2023-08-25T02:14:15.397Z,99513.00
2023-08-25T02:16:43.404Z,99513.00
2023-08-25T02:19:10.849Z,99507.00
2023-08-25T02:21:41.640Z,99499.00
2023-08-25T02:24:10.852Z,99501.00
2023-08-25T02:26:38.334Z,99507.00
2023-08-25T02:29:08.084Z,99510.00
2023-08-25T02:31:35.955Z,99502.00
2023-08-25T02:34:04.158Z,99512.00
2023-08-25T02:36:31.708Z,99516.00
2023-08-25T02:38:59.188Z,99506.00
2023-08-25T02:41:26.719Z,99497.00
2023-08-25T02:43:54.108Z,99495.00
2023-08-25T02:46:21.708Z,99499.00
2023-08-25T02:48:49.484Z,99503.00
2023-08-25T02:51:17.405Z,99511.00
2023-08-25T02:53:44.681Z,99505.00
2023-08-25T02:56:12.759Z,99503.00
2023-08-25T02:58:40.289Z,99506.00
2023-08-25T03:01:15.386Z,99507.00
2023-08-25T03:03:43.052Z,99497.00
2023-08-25T03:06:10.808Z,99493.00
2023-08-25T03:08:38.322Z,99495.00
2023-08-25T03:11:05.962Z,99490.00
2023-08-25T03:13:34.435Z,99484.00
2023-08-25T03:16:03.272Z,99484.00
2023-08-25T03:18:31.513Z,99494.00
2023-08-25T03:20:59.053Z,99489.00
2023-08-25T03:23:26.551Z,99481.00
2023-08-25T03:25:54.078Z,99477.00
2023-08-25T03:28:21.479Z,99479.00
2023-08-25T03:30:53.093Z,99485.00
2023-08-25T03:33:20.860Z,99481.00
2023-08-25T03:35:48.416Z,99482.00
2023-08-25T03:38:16.056Z,99476.00
2023-08-25T03:40:44.482Z,99477.00
2023-08-25T03:43:12.102Z,99482.00
2023-08-25T03:45:39.603Z,99473.00
2023-08-25T03:48:07.464Z,99476.00
2023-08-25T03:50:35.148Z,99473.00
2023-08-25T03:53:02.791Z,99473.00
2023-08-25T03:55:30.385Z,99474.00
2023-08-25T03:57:57.885Z,99476.00
2023-08-25T04:00:25.292Z,99469.00
2023-08-25T04:03:18.026Z,99468.00
2023-08-25T04:05:46.309Z,99475.00
2023-08-25T04:08:14.171Z,99468.00
2023-08-25T04:10:45.546Z,99474.00
2023-08-25T04:13:13.703Z,99477.00
2023-08-25T04:15:41.719Z,99474.00
2023-08-25T04:18:09.542Z,99478.00
2023-08-25T04:20:37.040Z,99478.00
2023-08-25T04:23:05.136Z,99488.00
2023-08-25T04:25:32.485Z,99485.00
2023-08-25T04:28:00.146Z,99491.00
2023-08-25T04:30:27.608Z,99485.00
2023-08-25T04:32:55.734Z,99486.00
2023-08-25T04:35:23.669Z,99489.00
2023-08-25T04:37:52.433Z,99486.00
2023-08-25T04:40:21.638Z,99492.00
2023-08-25T04:42:49.384Z,99492.00
2023-08-25T04:45:16.695Z,99496.00
2023-08-25T04:47:44.398Z,99492.00
2023-08-25T04:50:14.893Z,99497.00
2023-08-25T04:52:42.433Z,99495.00
2023-08-25T04:55:11.678Z,99497.00
2023-08-25T04:57:39.891Z,99490.00
2023-08-25T05:00:10.202Z,99506.00
2023-08-25T05:02:37.843Z,99500.00
2023-08-25T05:05:08.514Z,99503.00
2023-08-25T05:07:37.278Z,99503.00
2023-08-25T05:10:05.104Z,99509.00
2023-08-25T05:12:32.663Z,99500.00
2023-08-25T05:15:00.205Z,99494.00
2023-08-25T05:17:27.698Z,99485.00
2023-08-25T05:19:55.168Z,99490.00
2023-08-25T05:22:25.217Z,99478.00
2023-08-25T05:24:54.061Z,99480.00
2023-08-25T05:27:21.410Z,99473.00
2023-08-25T05:29:49.807Z,99479.00
2023-08-25T05:32:17.155Z,99475.00
2023-08-25T05:34:44.796Z,99476.00
2023-08-25T05:37:12.562Z,99473.00
2023-08-25T05:39:39.893Z,99478.00
2023-08-25T05:42:09.403Z,99486.00
2023-08-25T05:44:36.891Z,99484.00
2023-08-25T05:47:04.934Z,99489.00
2023-08-25T05:49:33.651Z,99492.00
2023-08-25T05:52:01.076Z,99493.00
2023-08-25T05:54:28.558Z,99497.00
2023-08-25T05:56:56.507Z,99501.00
2023-08-25T05:59:28.403Z,99505.00
2023-08-25T06:01:55.781Z,99504.00
2023-08-25T06:04:23.177Z,99509.00
2023-08-25T06:06:50.468Z,99509.00
2023-08-25T06:09:19.383Z,99507.00
2023-08-25T06:11:47.066Z,99520.00
2023-08-25T06:14:14.453Z,99521.00
2023-08-25T06:16:43.480Z,99527.00
2023-08-25T06:19:10.939Z,99513.00
2023-08-25T06:21:38.380Z,99520.00
2023-08-25T06:24:06.161Z,99526.00
2023-08-25T06:26:34.900Z,99516.00
2023-08-25T06:29:02.449Z,99520.00
2023-08-25T06:31:35.403Z,99522.00
2023-08-25T06:34:06.160Z,99522.00
2023-08-25T06:36:34.096Z,99523.00
2023-08-25T06:39:02.142Z,99529.00
2023-08-25T06:41:29.486Z,99521.00
2023-08-25T06:43:59.106Z,99512.00
2023-08-25T06:46:26.677Z,99501.00
2023-08-25T06:48:54.299Z,99488.00
2023-08-25T06:51:21.957Z,99486.00
2023-08-25T06:53:49.219Z,99491.00
2023-08-25T06:56:16.967Z,99496.00
2023-08-25T06:58:44.408Z,99500.00
2023-08-25T07:01:12.153Z,99487.00
2023-08-25T07:03:39.811Z,99495.00
2023-08-25T07:06:07.331Z,99499.00
2023-08-25T07:08:35.082Z,99503.00
2023-08-25T07:11:05.439Z,99495.00
2023-08-25T07:13:33.299Z,99495.00
2023-08-25T07:16:00.743Z,99487.00
2023-08-25T07:18:28.301Z,99485.00
2023-08-25T07:20:56.108Z,99474.00
2023-08-25T07:23:24.017Z,99478.00
2023-08-25T07:25:54.096Z,99470.00
2023-08-25T07:28:21.428Z,99466.00
2023-08-25T07:30:48.854Z,99466.00
2023-08-25T07:33:16.355Z,99468.00
2023-08-25T07:35:48.088Z,99472.00
2023-08-25T07:38:15.913Z,99473.00
2023-08-25T07:40:43.712Z,99472.00
2023-08-25T07:43:12.119Z,99478.00
2023-08-25T07:45:39.693Z,99478.00
2023-08-25T07:48:07.893Z,99494.00
2023-08-25T07:50:35.445Z,99487.00
2023-08-25T07:53:02.961Z,99486.00
2023-08-25T07:55:30.595Z,99489.00
2023-08-25T07:58:00.367Z,99512.00
2023-08-25T08:00:29.067Z,99513.00
2023-08-25T08:02:56.624Z,99517.00
2023-08-25T08:05:24.776Z,99513.00
2023-08-25T08:07:52.516Z,99520.00
2023-08-25T08:10:23.320Z,99523.00
2023-08-25T08:12:50.666Z,99515.00
2023-08-25T08:15:18.025Z,99513.00
2023-08-25T08:17:45.622Z,99514.00
2023-08-25T08:20:16.854Z,99521.00
2023-08-25T08:22:44.644Z,99524.00
2023-08-25T08:25:13.203Z,99529.00
2023-08-25T08:27:43.184Z,99531.00
2023-08-25T08:30:11.973Z,99535.00
2023-08-25T08:32:40.345Z,99535.00
2023-08-25T08:35:09.738Z,99527.00
2023-08-25T08:37:38.641Z,99524.00
2023-08-25T08:40:07.382Z,99540.00
2023-08-25T08:42:37.467Z,99538.00
2023-08-25T08:45:10.790Z,99540.00
2023-08-25T08:47:40.004Z,99542.00
2023-08-25T08:50:09.364Z,99541.00
2023-08-25T08:52:37.373Z,99533.00
2023-08-25T08:55:09.253Z,99537.00
2023-08-25T08:57:37.038Z,99528.00
2023-08-25T09:00:09.558Z,99521.00
2023-08-25T09:02:37.294Z,99523.00
2023-08-25T09:05:07.292Z,99527.00
2023-08-25T09:07:35.741Z,99530.00
2023-08-25T09:10:03.739Z,99526.00
2023-08-25T09:12:31.240Z,99537.00
2023-08-25T09:14:58.785Z,99538.00
2023-08-25T09:17:26.267Z,99542.00
2023-08-25T09:19:54.564Z,99549.00
2023-08-25T09:22:21.986Z,99557.00
2023-08-25T09:24:50.178Z,99564.00
2023-08-25T09:27:27.887Z,99577.00
2023-08-25T09:30:07.198Z,99579.00
2023-08-25T09:32:35.532Z,99583.00
2023-08-25T09:35:15.167Z,99586.00
2023-08-25T09:37:46.731Z,99582.00
2023-08-25T09:40:17.152Z,99589.00
2023-08-25T09:42:44.631Z,99589.00
2023-08-25T09:45:16.080Z,99598.00
2023-08-25T09:47:49.581Z,99593.00
2023-08-25T09:50:21.166Z,99589.00
2023-08-25T09:52:50.060Z,99583.00
2023-08-25T09:55:17.914Z,99580.00
2023-08-25T09:57:50.268Z,99588.00
2023-08-25T10:00:18.813Z,99577.00
2023-08-25T10:02:47.311Z,99572.00
2023-08-25T10:05:16.314Z,99561.00
2023-08-25T10:07:44.688Z,99564.00
2023-08-25T10:10:12.942Z,99554.00
2023-08-25T10:12:44.153Z,99550.00
2023-08-25T10:15:16.927Z,99569.00
2023-08-25T10:17:47.150Z,99577.00
2023-08-25T10:20:16.808Z,99573.00
2023-08-25T10:22:51.288Z,99574.00
2023-08-25T10:25:20.501Z,99583.00
2023-08-25T10:27:49.023Z,99589.00
2023-08-25T10:30:16.879Z,99586.00
2023-08-25T10:32:57.297Z,99593.00
2023-08-25T10:35:45.899Z,99594.00
2023-08-25T10:38:31.730Z,99608.00
2023-08-25T10:41:12.449Z,99629.00
2023-08-25T10:43:39.888Z,99622.00
2023-08-25T10:46:09.021Z,99587.00
2023-08-25T10:48:40.470Z,99578.00
2023-08-25T10:51:10.352Z,99571.00
2023-08-25T10:53:46.333Z,99565.00
2023-08-25T10:56:24.966Z,99576.00
2023-08-25T10:59:11.990Z,99569.00
2023-08-25T11:01:39.856Z,99573.00
2023-08-25T11:04:14.923Z,99573.00
2023-08-25T11:06:50.641Z,99585.00
2023-08-25T11:09:33.607Z,99595.00
2023-08-25T11:12:06.390Z,99627.00
2023-08-25T11:14:43.913Z,99649.00
2023-08-25T11:17:11.862Z,99633.00
2023-08-25T11:19:41.231Z,99633.00
2023-08-25T11:22:12.943Z,99651.00
2023-08-25T11:24:40.972Z,99644.00
2023-08-25T11:27:18.495Z,99628.00
2023-08-25T11:29:46.758Z,99623.00
2023-08-25T11:32:30.214Z,99620.00
2023-08-25T11:37:41.472Z,99619.00
2023-08-25T11:40:31.867Z,99638.00
2023-08-25T11:42:59.763Z,99623.00
2023-08-25T11:45:32.768Z,99628.00
2023-08-25T11:48:00.972Z,99637.00
2023-08-25T11:50:28.622Z,99621.00
2023-08-25T11:52:59.734Z,99620.00
2023-08-25T11:55:34.568Z,99618.00
2023-08-25T11:58:12.095Z,99643.00
2023-08-25T12:00:40.080Z,99651.00
2023-08-25T12:03:08.677Z,99655.00
2023-08-25T12:05:38.179Z,99667.00
2023-08-25T12:08:05.968Z,99663.00
2023-08-25T12:10:37.160Z,99668.00
2023-08-25T12:13:05.082Z,99689.00
2023-08-25T12:15:43.961Z,99704.00
2023-08-25T12:18:14.513Z,99705.00
2023-08-25T12:20:46.283Z,99690.00
2023-08-25T12:23:15.131Z,99672.00
2023-08-25T12:25:46.507Z,99676.00
2023-08-25T12:28:13.950Z,99651.00
2023-08-25T12:30:41.697Z,99646.00
2023-08-25T12:33:09.153Z,99653.00
2023-08-25T12:35:37.459Z,99673.00
2023-08-25T12:38:05.075Z,99671.00
2023-08-25T12:40:32.400Z,99638.00
2023-08-25T12:42:59.803Z,99627.00
2023-08-25T12:45:27.312Z,99625.00
2023-08-25T12:47:55.007Z,99619.00
2023-08-25T12:50:23.095Z,99614.00
2023-08-25T12:52:51.201Z,99640.00
2023-08-25T12:55:21.945Z,99625.00
2023-08-25T12:57:54.239Z,99601.00
2023-08-25T13:00:22.076Z,99593.00
2023-08-25T13:02:52.455Z,99554.00
2023-08-25T13:05:21.390Z,99545.00
2023-08-25T13:07:49.172Z,99560.00
2023-08-25T13:10:16.999Z,99560.00
2023-08-25T13:12:44.368Z,99575.00
2023-08-25T13:15:13.113Z,99561.00
2023-08-25T13:17:41.670Z,99545.00
2023-08-25T13:20:11.973Z,99535.00
2023-08-25T13:22:40.483Z,99550.00
2023-08-25T13:25:09.178Z,99553.00
2023-08-25T13:27:39.274Z,99549.00
2023-08-25T13:30:11.230Z,99548.00
2023-08-25T13:32:38.837Z,99548.00
2023-08-25T13:35:07.033Z,99548.00
2023-08-25T13:37:35.551Z,99560.00
2023-08-25T13:40:03.877Z,99548.00
2023-08-25T13:42:32.922Z,99555.00
2023-08-25T13:45:01.796Z,99580.00
2023-08-25T13:47:29.418Z,99583.00
2023-08-25T13:49:56.994Z,99582.00
2023-08-25T13:52:24.357Z,99583.00
2023-08-25T13:54:52.716Z,99575.00
2023-08-25T13:57:20.821Z,99564.00
2023-08-25T13:59:48.849Z,99556.00
2023-08-25T14:02:17.077Z,99553.00
2023-08-25T14:04:44.528Z,99571.00
2023-08-25T14:07:13.669Z,99579.00
2023-08-25T14:09:41.023Z,99569.00
2023-08-25T14:12:08.498Z,99583.00
2023-08-25T14:14:36.167Z,99585.00
2023-08-25T14:17:05.583Z,99577.00
2023-08-25T14:19:33.412Z,99569.00
2023-08-25T14:22:00.920Z,99564.00
2023-08-25T14:24:28.615Z,99550.00
2023-08-25T14:26:56.185Z,99545.00
2023-08-25T14:29:23.818Z,99532.00
2023-08-25T14:31:51.152Z,99530.00
2023-08-25T14:34:18.561Z,99540.00
2023-08-25T14:36:45.895Z,99545.00
2023-08-25T14:39:16.008Z,99560.00
2023-08-25T14:41:48.926Z,99574.00
2023-08-25T14:44:17.734Z,99578.00
2023-08-25T14:46:45.118Z,99581.00
2023-08-25T14:49:13.078Z,99577.00
2023-08-25T14:51:40.691Z,99573.00
2023-08-25T14:54:08.459Z,99546.00
2023-08-25T14:56:36.047Z,99539.00
2023-08-25T14:59:04.258Z,99533.00
2023-08-25T15:01:31.754Z,99536.00
2023-08-25T15:04:02.475Z,99527.00
2023-08-25T15:06:30.378Z,99500.00
2023-08-25T15:08:57.822Z,99462.00
2023-08-25T15:11:25.317Z,99446.00
2023-08-25T15:13:52.734Z,99485.00
2023-08-25T15:16:20.173Z,99482.00
2023-08-25T15:18:47.750Z,99460.00
2023-08-25T15:21:15.157Z,99468.00
2023-08-25T15:23:42.701Z,99449.00
2023-08-25T15:26:10.298Z,99430.00
2023-08-25T15:28:37.808Z,99434.00
2023-08-25T15:31:11.483Z,99381.00
2023-08-25T15:33:41.927Z,99361.00
2023-08-25T15:36:11.287Z,99382.00
2023-08-25T15:38:39.253Z,99366.00
2023-08-25T15:41:10.079Z,99337.00
2023-08-25T15:43:38.096Z,99280.00
2023-08-25T15:46:05.748Z,99247.00
2023-08-25T15:48:34.746Z,99241.00
2023-08-25T15:51:02.399Z,99259.00
2023-08-25T15:53:30.159Z,99262.00
2023-08-25T15:55:57.636Z,99248.00
2023-08-25T15:58:26.918Z,99259.00
2023-08-25T16:01:01.015Z,99276.00
2023-08-25T16:03:29.806Z,99281.00
2023-08-25T16:05:59.023Z,99306.00
2023-08-25T16:08:27.619Z,99338.00
2023-08-25T16:11:09.734Z,99362.00
2023-08-25T16:13:43.217Z,99366.00
2023-08-25T16:16:11.035Z,99362.00
2023-08-25T16:18:39.005Z,99367.00
2023-08-25T16:21:07.602Z,99376.00
2023-08-25T16:23:44.523Z,99377.00
2023-08-25T16:26:11.946Z,99377.00
2023-08-25T16:28:41.148Z,99384.00
2023-08-25T16:31:13.508Z,99383.00
2023-08-25T16:33:43.184Z,99384.00
2023-08-25T16:36:11.839Z,99387.00
2023-08-25T16:38:39.804Z,99372.00
2023-08-25T16:41:08.531Z,99363.00
2023-08-25T16:43:36.271Z,99361.00
2023-08-25T16:46:04.751Z,99358.00
2023-08-25T16:48:32.304Z,99358.00
2023-08-25T16:50:59.804Z,99365.00
2023-08-25T16:53:27.224Z,99365.00
2023-08-25T16:55:57.451Z,99359.00
2023-08-25T16:58:28.723Z,99360.00
2023-08-25T17:00:56.618Z,99366.00
2023-08-25T17:03:25.371Z,99358.00
2023-08-25T17:06:00.426Z,99352.00
2023-08-25T17:08:30.141Z,99357.00
2023-08-25T17:10:57.894Z,99347.00
2023-08-25T17:13:25.557Z,99359.00
2023-08-25T17:15:53.555Z,99354.00
2023-08-25T17:18:21.400Z,99364.00
2023-08-25T17:20:49.081Z,99365.00
2023-08-25T17:23:16.861Z,99368.00
2023-08-25T17:25:45.322Z,99378.00
2023-08-25T17:28:13.113Z,99383.00
2023-08-25T17:30:40.999Z,99380.00
2023-08-25T17:33:09.007Z,99385.00
2023-08-25T17:35:40.880Z,99385.00
2023-08-25T17:38:09.428Z,99385.00
2023-08-25T17:40:41.353Z,99389.00
2023-08-25T17:43:14.607Z,99382.00
2023-08-25T17:45:42.366Z,99388.00
2023-08-25T17:48:10.198Z,99391.00
2023-08-25T17:50:37.989Z,99398.00
2023-08-25T17:53:05.725Z,99412.00
2023-08-25T17:55:33.689Z,99402.00
2023-08-25T17:58:01.504Z,99400.00
2023-08-25T18:00:29.380Z,99409.00
2023-08-25T18:02:57.864Z,99411.00
2023-08-25T18:05:25.897Z,99416.00
2023-08-25T18:07:53.752Z,99414.00
2023-08-25T18:10:23.061Z,99408.00
2023-08-25T18:12:50.768Z,99414.00
2023-08-25T18:15:18.690Z,99421.00
2023-08-25T18:17:46.448Z,99425.00
2023-08-25T18:20:14.353Z,99437.00
2023-08-25T18:22:42.321Z,99437.00
2023-08-25T18:25:10.165Z,99439.00
2023-08-25T18:27:37.921Z,99441.00
2023-08-25T18:30:06.046Z,99443.00
2023-08-25T18:32:34.180Z,99442.00
2023-08-25T18:35:01.947Z,99441.00
2023-08-25T18:37:30.019Z,99442.00
2023-08-25T18:40:00.818Z,99452.00
2023-08-25T18:42:28.613Z,99451.00
2023-08-25T18:44:56.602Z,99458.00
2023-08-25T18:47:25.187Z,99468.00
2023-08-25T18:49:52.928Z,99464.00
2023-08-25T18:52:20.755Z,99458.00
2023-08-25T18:54:48.654Z,99462.00
2023-08-25T18:57:16.444Z,99451.00
2023-08-25T18:59:44.484Z,99446.00
2023-08-25T19:02:12.436Z,99453.00
2023-08-25T19:04:39.985Z,99456.00
2023-08-25T19:07:07.707Z,99470.00
2023-08-25T19:09:35.796Z,99473.00
2023-08-25T19:12:04.030Z,99471.00
2023-08-25T19:14:31.641Z,99468.00
2023-08-25T19:16:59.621Z,99464.00
2023-08-25T19:19:27.896Z,99467.00
2023-08-25T19:21:56.890Z,99470.00
2023-08-25T19:24:26.526Z,99465.00
2023-08-25T19:26:56.260Z,99463.00
2023-08-25T19:29:25.317Z,99450.00
2023-08-25T19:31:53.355Z,99468.00
2023-08-25T19:34:21.994Z,99470.00
2023-08-25T19:36:49.798Z,99464.00
2023-08-25T19:39:17.568Z,99458.00
2023-08-25T19:41:45.766Z,99451.00
2023-08-25T19:44:13.809Z,99451.00
2023-08-25T19:46:41.745Z,99450.00
2023-08-25T19:49:09.624Z,99454.00
2023-08-25T19:51:39.107Z,99455.00
2023-08-25T19:54:09.374Z,99458.00
2023-08-25T19:56:37.266Z,99468.00
2023-08-25T19:59:05.658Z,99472.00
2023-08-25T20:01:33.958Z,99471.00
2023-08-25T20:04:02.082Z,99485.00
2023-08-25T20:06:30.005Z,99478.00
2023-08-25T20:08:58.649Z,99472.00
2023-08-25T20:11:27.449Z,99474.00
2023-08-25T20:13:55.469Z,99479.00
2023-08-25T20:16:24.975Z,99470.00
2023-08-25T20:18:52.895Z,99477.00
2023-08-25T20:21:20.621Z,99455.00
2023-08-25T20:23:48.490Z,99452.00
2023-08-25T20:26:16.306Z,99458.00
2023-08-25T20:28:44.077Z,99445.00
2023-08-25T20:31:12.185Z,99446.00
2023-08-25T20:33:40.063Z,99441.00
2023-08-25T20:36:08.003Z,99430.00
2023-08-25T20:38:35.935Z,99430.00
2023-08-25T20:41:06.783Z,99442.00
2023-08-25T20:43:38.381Z,99449.00
2023-08-25T20:46:19.538Z,99454.00
2023-08-25T20:48:49.802Z,99453.00
2023-08-25T20:51:21.970Z,99463.00
2023-08-25T20:53:53.721Z,99468.00
2023-08-25T20:56:22.193Z,99460.00
2023-08-25T20:58:50.235Z,99461.00
2023-08-25T21:01:18.408Z,99464.00
2023-08-25T21:03:46.334Z,99461.00
2023-08-25T21:06:14.613Z,99461.00
2023-08-25T21:08:42.607Z,99460.00
2023-08-25T21:11:10.352Z,99467.00
2023-08-25T21:13:38.650Z,99464.00
2023-08-25T21:16:06.800Z,99463.00
2023-08-25T21:18:34.652Z,99465.00
2023-08-25T21:21:02.478Z,99478.00
2023-08-25T21:23:30.316Z,99474.00
2023-08-25T21:26:00.865Z,99470.00
2023-08-25T21:28:29.032Z,99470.00
2023-08-25T21:30:58.462Z,99460.00
2023-08-25T21:33:27.434Z,99459.00
2023-08-25T21:35:55.381Z,99454.00
2023-08-25T21:38:23.110Z,99456.00
2023-08-25T21:40:50.820Z,99458.00
2023-08-25T21:43:18.688Z,99458.00
2023-08-25T21:45:49.725Z,99456.00
2023-08-25T21:48:17.442Z,99448.00
2023-08-25T21:50:46.260Z,99443.00
2023-08-25T21:53:14.118Z,99437.00
2023-08-25T21:55:41.978Z,99442.00
2023-08-25T21:58:10.149Z,99430.00
2023-08-25T22:00:38.418Z,99423.00
2023-08-25T22:03:06.588Z,99430.00
2023-08-25T22:05:36.839Z,99435.00
2023-08-25T22:08:04.954Z,99426.00
2023-08-25T22:10:36.974Z,99420.00
2023-08-25T22:13:05.696Z,99417.00
2023-08-25T22:15:33.723Z,99431.00
2023-08-25T22:18:01.620Z,99428.00
2023-08-25T22:20:29.442Z,99431.00
2023-08-25T22:22:57.355Z,99442.00
2023-08-25T22:25:25.253Z,99453.00
2023-08-25T22:27:53.185Z,99446.00
2023-08-25T22:30:21.115Z,99452.00
2023-08-25T22:35:19.632Z,99414.00
2023-08-25T22:37:47.478Z,99423.00
2023-08-25T22:40:15.485Z,99433.00
2023-08-25T22:42:43.685Z,99436.00
2023-08-25T22:45:11.859Z,99452.00
2023-08-25T22:47:39.631Z,99459.00
2023-08-25T22:50:10.637Z,99453.00
2023-08-25T22:52:38.356Z,99452.00
2023-08-25T22:55:06.317Z,99447.00
2023-08-25T22:57:34.201Z,99457.00
2023-08-25T23:00:01.891Z,99452.00
2023-08-25T23:02:29.702Z,99446.00
2023-08-25T23:04:57.513Z,99450.00
2023-08-25T23:07:25.293Z,99444.00
2023-08-25T23:09:53.052Z,99442.00
2023-08-25T23:12:20.676Z,99441.00
2023-08-25T23:14:48.494Z,99446.00
2023-08-25T23:17:16.306Z,99448.00
2023-08-25T23:19:44.018Z,99448.00
2023-08-25T23:22:13.750Z,99452.00
2023-08-25T23:24:46.481Z,99462.00
2023-08-25T23:27:17.307Z,99458.00
2023-08-25T23:29:45.122Z,99451.00
2023-08-25T23:32:15.352Z,99446.00
2023-08-25T23:34:43.154Z,99446.00
2023-08-25T23:37:11.143Z,99447.00
2023-08-25T23:39:38.909Z,99445.00
2023-08-25T23:42:06.773Z,99446.00
2023-08-25T23:44:34.668Z,99446.00
2023-08-25T23:47:02.280Z,99454.00
2023-08-25T23:49:29.958Z,99443.00
2023-08-25T23:51:59.696Z,99456.00
2023-08-25T23:54:29.857Z,99463.00
2023-08-25T23:56:57.586Z,99455.00
2023-08-25T23:59:25.365Z,99453.00
